Time;durP1;ratioP1;P1;durP2;ratioP2;P2;SDS_P1;SDS_P2;PMS_P1;PMS_P2;Temp;Humidity;BMP_temperature;BMP_pressure;BME280_temperature;BME280_humidity;BME280_pressure;Samples;Min_cycle;Max_cycle;Signal;HPM_P1;HPM_P2
2021/10/21 00:00:24;;;;;;;6.45;3.55;;;16.80;99.90;;;;;;5122877;27;20227;-72
2021/10/21 00:02:52;;;;;;;3.85;3.10;;;16.70;99.90;;;;;;5127211;27;20196;-72
2021/10/21 00:05:19;;;;;;;5.03;3.80;;;16.80;99.90;;;;;;5122562;27;20219;-72
2021/10/21 00:07:46;;;;;;;5.75;3.70;;;16.80;99.90;;;;;;5123772;27;20193;-72
2021/10/21 00:10:14;;;;;;;5.30;3.80;;;16.70;99.90;;;;;;5122029;27;20250;-72
2021/10/21 00:12:40;;;;;;;4.82;3.70;;;16.70;99.90;;;;;;5128581;27;20207;-72
2021/10/21 00:15:09;;;;;;;5.35;3.92;;;16.70;99.90;;;;;;5124724;27;20207;-72
2021/10/21 00:17:37;;;;;;;5.15;4.15;;;16.70;99.90;;;;;;5121535;27;20212;-71
2021/10/21 00:20:07;;;;;;;4.47;3.30;;;16.70;99.90;;;;;;5119614;27;20197;-71
2021/10/21 00:22:34;;;;;;;6.22;4.32;;;16.70;99.90;;;;;;5125997;27;20208;-71
2021/10/21 00:25:01;;;;;;;5.93;3.65;;;16.70;99.90;;;;;;5123155;27;20563;-71
2021/10/21 00:27:28;;;;;;;7.13;3.97;;;16.70;99.90;;;;;;5120377;27;20197;-72
2021/10/21 00:29:55;;;;;;;7.30;3.50;;;16.80;99.90;;;;;;5118062;27;20221;-71
2021/10/21 00:32:21;;;;;;;6.80;4.32;;;16.80;99.90;;;;;;5120037;27;20296;-71
2021/10/21 00:34:48;;;;;;;4.45;3.60;;;16.80;99.90;;;;;;5118746;27;20653;-71
2021/10/21 00:37:17;;;;;;;5.75;3.78;;;16.60;99.90;;;;;;5121255;27;20265;-71
2021/10/21 00:39:44;;;;;;;6.28;3.78;;;16.60;99.90;;;;;;5119490;27;20289;-71
2021/10/21 00:42:10;;;;;;;7.47;3.60;;;16.70;99.90;;;;;;5123086;27;20568;-71
2021/10/21 00:44:37;;;;;;;4.32;3.92;;;16.70;99.90;;;;;;5122603;27;20216;-71
2021/10/21 00:47:04;;;;;;;5.13;3.97;;;16.70;99.90;;;;;;5125842;27;20196;-71
2021/10/21 00:49:31;;;;;;;4.47;3.53;;;16.70;99.90;;;;;;5116966;27;20679;-71
2021/10/21 00:51:58;;;;;;;6.72;3.92;;;16.70;99.90;;;;;;5120493;27;20785;-71
2021/10/21 00:54:27;;;;;;;5.13;3.75;;;16.70;99.90;;;;;;5125301;27;20213;-71
2021/10/21 00:56:56;;;;;;;5.30;3.60;;;16.70;99.90;;;;;;5123173;27;20201;-71
2021/10/21 00:59:23;;;;;;;3.83;3.20;;;16.70;99.90;;;;;;5128482;27;20674;-71
2021/10/21 01:01:49;;;;;;;7.05;3.83;;;16.70;99.90;;;;;;5119706;27;20196;-71
2021/10/21 01:04:16;;;;;;;5.80;3.33;;;16.70;99.90;;;;;;5124267;27;20573;-71
2021/10/21 01:06:43;;;;;;;4.10;3.42;;;16.70;99.90;;;;;;5122589;27;20203;-71
2021/10/21 01:09:10;;;;;;;5.10;3.20;;;16.90;99.90;;;;;;5121337;27;20203;-71
2021/10/21 01:11:40;;;;;;;5.00;2.90;;;16.90;99.90;;;;;;5126810;27;20277;-71
2021/10/21 01:14:07;;;;;;;5.03;3.33;;;16.80;99.90;;;;;;5125001;27;20575;-71
2021/10/21 01:16:34;;;;;;;4.68;3.03;;;16.80;99.90;;;;;;5118360;27;20208;-71
2021/10/21 01:19:01;;;;;;;4.43;3.33;;;16.80;99.90;;;;;;5122005;27;20200;-71
2021/10/21 01:21:29;;;;;;;5.80;3.10;;;16.80;99.90;;;;;;5121844;27;20192;-71
2021/10/21 01:23:56;;;;;;;4.30;3.30;;;16.80;99.90;;;;;;5121576;27;20649;-74
2021/10/21 01:26:23;;;;;;;3.13;2.83;;;16.80;99.90;;;;;;5125436;27;20219;-75
2021/10/21 01:28:50;;;;;;;3.97;2.88;;;16.80;99.90;;;;;;5125287;27;20199;-75
2021/10/21 01:31:16;;;;;;;6.07;3.15;;;16.70;99.90;;;;;;5117829;27;20589;-75
2021/10/21 01:33:43;;;;;;;4.60;3.15;;;16.80;99.90;;;;;;5121964;27;20209;-75
2021/10/21 01:36:13;;;;;;;3.60;2.78;;;16.80;99.90;;;;;;5122859;27;20200;-75
2021/10/21 01:38:41;;;;;;;4.50;3.17;;;16.70;99.90;;;;;;5121225;27;20731;-75
2021/10/21 01:41:08;;;;;;;3.30;2.70;;;16.70;99.90;;;;;;5123073;27;20199;-75
2021/10/21 01:43:41;;;;;;;3.53;2.90;;;16.70;99.90;;;;;;5119278;27;20197;-75
2021/10/21 01:46:09;;;;;;;6.03;3.42;;;16.60;99.90;;;;;;5122677;27;20201;-75
2021/10/21 01:48:35;;;;;;;5.05;3.13;;;16.60;99.90;;;;;;5121310;27;20204;-75
2021/10/21 01:51:03;;;;;;;7.28;3.60;;;16.60;99.90;;;;;;5125939;27;20701;-75
2021/10/21 01:53:30;;;;;;;6.20;3.10;;;16.70;99.90;;;;;;5119208;28;20205;-75
2021/10/21 01:55:58;;;;;;;4.20;3.00;;;16.70;99.90;;;;;;5120392;27;20193;-75
2021/10/21 01:58:25;;;;;;;3.55;2.92;;;16.80;99.90;;;;;;5116566;27;20201;-75
2021/10/21 02:00:52;;;;;;;3.22;2.92;;;16.70;99.90;;;;;;5137596;27;20204;-75
2021/10/21 02:03:19;;;;;;;3.45;3.10;;;16.70;99.90;;;;;;5121684;28;20197;-75
2021/10/21 02:05:46;;;;;;;3.38;3.05;;;16.90;99.90;;;;;;5115787;27;20205;-75
2021/10/21 02:08:13;;;;;;;5.43;3.10;;;16.90;99.90;;;;;;5125769;28;20225;-75
2021/10/21 02:10:40;;;;;;;5.45;3.15;;;16.90;99.90;;;;;;5119893;27;20213;-75
2021/10/21 02:13:09;;;;;;;4.70;3.20;;;16.90;99.90;;;;;;5122587;27;20199;-75
2021/10/21 02:15:36;;;;;;;5.30;2.83;;;16.90;99.90;;;;;;5116607;27;20207;-77
2021/10/21 02:18:03;;;;;;;6.57;3.60;;;16.90;99.90;;;;;;5123662;27;20196;-77
2021/10/21 02:20:31;;;;;;;4.53;3.35;;;16.50;99.90;;;;;;5129737;27;20204;-77
2021/10/21 02:22:58;;;;;;;6.72;3.65;;;16.20;99.90;;;;;;5129315;27;20227;-78
2021/10/21 02:25:25;;;;;;;3.30;3.00;;;16.10;99.90;;;;;;5131103;27;20326;-76
2021/10/21 02:27:53;;;;;;;10.93;3.58;;;15.90;99.90;;;;;;5127794;27;20196;-77
2021/10/21 02:30:23;;;;;;;5.57;3.17;;;15.80;99.90;;;;;;5126156;27;20207;-76
2021/10/21 02:32:50;;;;;;;5.60;3.30;;;15.80;99.90;;;;;;5122507;28;20211;-76
2021/10/21 02:35:17;;;;;;;5.10;2.97;;;15.80;99.90;;;;;;5127104;27;20200;-77
2021/10/21 02:37:44;;;;;;;4.00;3.03;;;15.70;99.90;;;;;;5129088;27;20195;-77
2021/10/21 02:40:13;;;;;;;5.70;3.30;;;15.60;99.90;;;;;;5135198;27;20559;-76
2021/10/21 02:42:40;;;;;;;3.78;3.40;;;15.60;99.90;;;;;;5142290;27;20201;-76
2021/10/21 02:45:14;;;;;;;5.45;3.00;;;15.60;99.90;;;;;;5133424;27;20734;-76
2021/10/21 02:47:44;;;;;;;4.78;2.88;;;15.60;99.90;;;;;;5129831;27;20234;-76
2021/10/21 02:50:11;;;;;;;3.08;2.75;;;15.50;99.90;;;;;;5131391;27;20659;-76
2021/10/21 02:52:38;;;;;;;3.30;2.80;;;15.50;99.90;;;;;;5123530;27;20224;-76
2021/10/21 02:55:06;;;;;;;3.78;3.00;;;15.40;99.90;;;;;;5130084;27;20198;-76
2021/10/21 02:57:33;;;;;;;3.97;2.92;;;15.40;99.90;;;;;;5114608;27;20204;-76
2021/10/21 02:59:59;;;;;;;4.72;2.50;;;15.40;99.90;;;;;;5140619;27;20213;-76
2021/10/21 03:02:26;;;;;;;2.90;2.45;;;15.30;99.90;;;;;;5136180;27;20676;-76
2021/10/21 03:04:55;;;;;;;2.50;2.30;;;15.30;99.90;;;;;;5120942;27;20216;-75
2021/10/21 03:07:21;;;;;;;3.20;2.33;;;15.30;99.90;;;;;;5120497;27;20568;-76
2021/10/21 03:09:48;;;;;;;2.25;2.05;;;15.30;99.90;;;;;;5137059;27;20199;-76
2021/10/21 03:12:15;;;;;;;2.23;1.90;;;15.30;99.90;;;;;;5147425;27;20255;-76
2021/10/21 03:14:42;;;;;;;3.65;2.25;;;15.40;99.90;;;;;;5136921;27;20562;-76
2021/10/21 03:17:09;;;;;;;3.17;1.85;;;15.40;99.90;;;;;;5133571;27;20223;-76
2021/10/21 03:19:36;;;;;;;5.43;2.10;;;15.30;99.90;;;;;;5141086;27;20295;-76
2021/10/21 03:22:05;;;;;;;2.60;1.80;;;15.30;99.90;;;;;;5116960;27;20192;-76
2021/10/21 03:24:31;;;;;;;1.95;1.75;;;15.20;99.90;;;;;;5127383;27;20201;-76
2021/10/21 03:26:58;;;;;;;2.80;2.05;;;15.30;99.90;;;;;;5137881;27;20279;-76
2021/10/21 03:29:25;;;;;;;1.75;1.60;;;15.40;99.90;;;;;;5126648;27;20200;-76
2021/10/21 03:31:52;;;;;;;1.60;1.50;;;15.50;99.90;;;;;;5123126;27;20820;-76
2021/10/21 03:34:19;;;;;;;2.95;1.63;;;15.50;99.90;;;;;;5129024;27;20196;-76
2021/10/21 03:36:46;;;;;;;1.83;1.27;;;15.60;99.90;;;;;;5139443;27;20199;-76
2021/10/21 03:39:14;;;;;;;3.13;1.70;;;15.50;99.90;;;;;;5122037;27;20643;-76
2021/10/21 03:41:41;;;;;;;1.80;1.35;;;15.40;99.90;;;;;;5122263;27;20543;-76
2021/10/21 03:44:08;;;;;;;2.28;1.25;;;15.60;99.90;;;;;;5127106;27;20193;-75
2021/10/21 03:46:36;;;;;;;2.77;1.80;;;15.60;99.90;;;;;;5132805;27;20205;-76
2021/10/21 03:49:04;;;;;;;2.42;1.40;;;15.50;99.90;;;;;;5124418;27;20193;-76
2021/10/21 03:51:31;;;;;;;2.10;1.30;;;15.60;99.90;;;;;;5124651;27;20687;-75
2021/10/21 03:53:58;;;;;;;1.88;1.23;;;15.60;99.90;;;;;;5123820;27;20206;-76
2021/10/21 03:56:26;;;;;;;2.45;1.17;;;15.60;99.90;;;;;;5131675;27;20208;-76
2021/10/21 03:58:53;;;;;;;3.15;1.30;;;15.50;99.90;;;;;;5121230;27;20212;-76
2021/10/21 04:01:20;;;;;;;3.35;1.17;;;15.60;99.90;;;;;;5135521;27;20307;-76
2021/10/21 04:03:47;;;;;;;3.20;1.25;;;15.70;99.90;;;;;;5129716;27;20196;-76
2021/10/21 04:06:14;;;;;;;2.42;1.42;;;15.70;99.90;;;;;;5125139;27;20201;-75
2021/10/21 04:08:41;;;;;;;1.95;1.20;;;15.70;99.90;;;;;;5114586;27;20519;-76
2021/10/21 04:11:07;;;;;;;2.08;1.40;;;15.90;99.90;;;;;;5129347;27;20216;-76
2021/10/21 04:13:36;;;;;;;0.90;0.80;;;15.80;99.90;;;;;;5133304;27;20223;-76
2021/10/21 04:16:02;;;;;;;1.95;1.13;;;15.80;99.90;;;;;;5128657;27;20265;-76
2021/10/21 04:18:29;;;;;;;1.27;1.17;;;15.80;99.90;;;;;;5139492;27;20645;-75
2021/10/21 04:20:56;;;;;;;2.95;1.23;;;15.70;99.90;;;;;;5132100;27;20199;-76
2021/10/21 04:23:23;;;;;;;6.38;1.60;;;15.40;99.90;;;;;;5128629;27;20203;-78
2021/10/21 04:25:50;;;;;;;4.70;1.40;;;14.80;99.90;;;;;;5118755;27;20197;-76
2021/10/21 04:28:17;;;;;;;3.47;1.60;;;14.10;99.90;;;;;;5121359;27;20712;-76
2021/10/21 04:30:45;;;;;;;2.95;1.23;;;13.70;99.90;;;;;;5130764;27;20641;-76
2021/10/21 04:33:12;;;;;;;4.03;1.50;;;13.60;99.90;;;;;;5126201;27;20599;-75
2021/10/21 04:35:39;;;;;;;3.37;1.70;;;13.70;99.90;;;;;;5124376;27;20203;-76
2021/10/21 04:38:06;;;;;;;2.90;1.20;;;13.70;99.90;;;;;;5132496;27;20642;-76
2021/10/21 04:40:33;;;;;;;5.03;1.00;;;13.70;99.90;;;;;;5132935;27;20200;-76
2021/10/21 04:43:00;;;;;;;1.97;0.80;;;14.00;99.90;;;;;;5123600;27;20218;-76
2021/10/21 04:45:27;;;;;;;2.23;0.93;;;13.80;99.90;;;;;;5138082;27;20222;-79
2021/10/21 04:47:56;;;;;;;3.47;1.00;;;14.00;99.90;;;;;;5133677;27;20202;-80
2021/10/21 04:50:24;;;;;;;2.95;0.90;;;14.00;99.90;;;;;;5113917;27;20199;-80
2021/10/21 04:52:52;;;;;;;1.83;0.50;;;14.10;99.90;;;;;;5139327;27;20264;-80
2021/10/21 04:55:21;;;;;;;1.33;0.43;;;14.00;99.90;;;;;;5133331;27;20764;-82
2021/10/21 04:57:48;;;;;;;1.07;0.67;;;14.00;99.90;;;;;;5143167;27;20191;-82
2021/10/21 05:00:16;;;;;;;4.63;0.93;;;14.00;99.90;;;;;;5126020;27;20231;-81
2021/10/21 05:02:43;;;;;;;2.47;0.70;;;13.90;99.90;;;;;;5121092;27;20713;-81
2021/10/21 05:05:12;;;;;;;4.70;1.47;;;14.00;99.90;;;;;;5120620;27;20290;-81
2021/10/21 05:07:39;;;;;;;2.60;0.87;;;14.10;99.90;;;;;;5124493;27;20245;-78
2021/10/21 05:10:07;;;;;;;2.20;0.80;;;14.30;99.90;;;;;;5124164;27;20208;-79
2021/10/21 05:12:34;;;;;;;5.53;1.10;;;14.10;99.90;;;;;;5121111;27;20227;-80
2021/10/21 05:15:00;;;;;;;2.67;1.23;;;14.20;99.90;;;;;;5121650;27;20200;-80
2021/10/21 05:17:28;;;;;;;3.13;1.10;;;14.10;99.90;;;;;;5124124;27;20655;-79
2021/10/21 05:19:54;;;;;;;2.53;1.17;;;14.20;99.90;;;;;;5120725;27;20199;-80
2021/10/21 05:22:23;;;;;;;2.97;0.93;;;14.20;99.90;;;;;;5117308;27;20204;-79
2021/10/21 05:24:49;;;;;;;2.57;0.60;;;14.20;99.90;;;;;;5120928;27;20207;-79
2021/10/21 05:27:16;;;;;;;2.03;0.57;;;14.20;99.90;;;;;;5125950;27;20204;-79
2021/10/21 05:29:43;;;;;;;0.87;0.50;;;14.20;99.90;;;;;;5115459;27;20707;-79
2021/10/21 05:32:10;;;;;;;4.67;1.17;;;14.30;99.90;;;;;;5124381;27;20689;-80
2021/10/21 05:34:38;;;;;;;3.97;1.10;;;14.20;99.90;;;;;;5126479;27;20193;-80
2021/10/21 05:37:06;;;;;;;5.20;0.97;;;14.10;99.90;;;;;;5120335;27;20206;-80
2021/10/21 05:39:35;;;;;;;3.27;0.97;;;14.10;99.90;;;;;;5123577;27;20201;-79
2021/10/21 05:42:02;;;;;;;5.97;1.07;;;14.20;99.90;;;;;;5113728;27;20196;-80
2021/10/21 05:44:28;;;;;;;2.40;1.10;;;14.10;99.90;;;;;;5124526;28;20201;-79
2021/10/21 05:46:56;;;;;;;2.53;0.80;;;14.20;99.90;;;;;;5124197;28;20394;-79
2021/10/21 05:49:23;;;;;;;1.60;0.97;;;14.20;99.90;;;;;;5127512;28;20601;-79
2021/10/21 05:51:50;;;;;;;2.97;0.93;;;14.30;99.90;;;;;;5121847;28;20571;-80
2021/10/21 05:54:17;;;;;;;4.83;0.60;;;14.20;99.90;;;;;;5118586;28;20208;-80
2021/10/21 05:56:45;;;;;;;2.30;0.53;;;14.20;99.90;;;;;;5123772;28;20204;-80
2021/10/21 05:59:12;;;;;;;2.23;0.50;;;14.10;99.90;;;;;;5117440;28;20199;-79
2021/10/21 06:01:39;;;;;;;4.03;0.60;;;14.10;99.90;;;;;;5116808;28;20283;-80
2021/10/21 06:04:06;;;;;;;1.27;0.50;;;14.20;99.90;;;;;;5113679;28;20234;-79
2021/10/21 06:06:36;;;;;;;1.90;0.30;;;14.30;99.90;;;;;;5127244;28;20196;-79
2021/10/21 06:09:04;;;;;;;1.50;0.40;;;14.30;99.90;;;;;;5124953;28;20200;-78
2021/10/21 06:11:31;;;;;;;1.23;0.37;;;14.20;99.90;;;;;;5126352;28;20196;-80
2021/10/21 06:14:01;;;;;;;1.67;0.47;;;14.20;99.90;;;;;;5119018;28;20193;-80
2021/10/21 06:16:28;;;;;;;2.63;0.50;;;14.40;99.90;;;;;;5120392;27;20225;-80
2021/10/21 06:18:56;;;;;;;5.47;0.70;;;14.40;99.90;;;;;;5115346;27;20207;-80
2021/10/21 06:21:24;;;;;;;3.33;0.80;;;14.30;99.90;;;;;;5129586;27;20208;-79
2021/10/21 06:23:52;;;;;;;2.20;0.40;;;14.20;99.90;;;;;;5126196;27;20610;-80
2021/10/21 06:26:19;;;;;;;1.60;0.40;;;14.20;99.90;;;;;;5124622;27;20204;-80
2021/10/21 06:28:49;;;;;;;1.17;0.30;;;14.10;99.90;;;;;;5125020;27;20706;-79
2021/10/21 06:31:18;;;;;;;2.67;0.50;;;14.00;99.90;;;;;;5123606;27;20611;-80
2021/10/21 06:33:46;;;;;;;2.37;1.00;;;13.90;99.90;;;;;;5120101;27;20729;-80
2021/10/21 06:36:13;;;;;;;2.23;0.97;;;13.70;99.90;;;;;;5124687;27;20193;-78
2021/10/21 06:38:40;;;;;;;1.93;0.77;;;13.40;99.90;;;;;;5122506;27;20555;-80
2021/10/21 06:41:08;;;;;;;1.87;0.50;;;13.20;99.90;;;;;;5127094;27;20203;-79
2021/10/21 06:43:35;;;;;;;3.60;0.40;;;13.20;99.90;;;;;;5122466;27;20195;-79
2021/10/21 06:46:02;;;;;;;2.17;0.70;;;13.10;99.90;;;;;;5124135;27;20239;-80
2021/10/21 06:48:30;;;;;;;3.13;0.77;;;13.00;99.90;;;;;;5129272;27;20209;-80
2021/10/21 06:50:57;;;;;;;7.00;0.87;;;12.90;99.90;;;;;;5125818;27;20196;-79
2021/10/21 06:53:24;;;;;;;2.53;0.60;;;12.80;99.90;;;;;;5126788;27;20578;-79
2021/10/21 06:55:51;;;;;;;1.33;0.53;;;12.70;99.90;;;;;;5122056;27;20262;-79
2021/10/21 06:58:19;;;;;;;2.80;0.60;;;12.60;99.90;;;;;;5126658;27;20680;-78
2021/10/21 07:00:48;;;;;;;4.80;0.50;;;12.60;99.90;;;;;;5119881;27;20213;-78
2021/10/21 07:03:15;;;;;;;4.23;0.60;;;12.60;99.90;;;;;;5117465;27;20535;-78
2021/10/21 07:05:43;;;;;;;3.30;0.53;;;12.70;99.90;;;;;;5126638;27;20845;-78
2021/10/21 07:08:11;;;;;;;6.07;0.60;;;12.80;99.90;;;;;;5121177;27;20607;-79
2021/10/21 07:10:38;;;;;;;3.10;0.90;;;12.80;99.90;;;;;;5128781;27;20196;-78
2021/10/21 07:13:05;;;;;;;1.43;0.40;;;12.90;99.90;;;;;;5126444;27;20701;-78
2021/10/21 07:15:33;;;;;;;1.43;0.60;;;12.90;99.90;;;;;;5126612;27;20662;-78
2021/10/21 07:18:00;;;;;;;2.50;0.40;;;13.10;99.90;;;;;;5120583;27;20205;-78
2021/10/21 07:20:28;;;;;;;2.50;0.30;;;13.10;99.90;;;;;;5123083;27;20298;-79
2021/10/21 07:22:56;;;;;;;2.30;0.37;;;13.20;99.90;;;;;;5126790;27;20196;-78
2021/10/21 07:25:23;;;;;;;1.27;0.30;;;13.30;99.90;;;;;;5122839;27;20205;-78
2021/10/21 07:27:50;;;;;;;4.90;0.60;;;13.30;99.90;;;;;;5119383;27;20250;-79
2021/10/21 07:30:18;;;;;;;1.50;0.40;;;13.30;99.90;;;;;;5124896;27;20290;-79
2021/10/21 07:32:44;;;;;;;1.20;0.30;;;13.40;99.90;;;;;;5120755;27;20583;-79
2021/10/21 07:35:12;;;;;;;3.30;0.73;;;13.40;99.90;;;;;;5126194;27;20192;-78
2021/10/21 07:37:39;;;;;;;0.87;0.50;;;13.30;99.90;;;;;;5117292;27;20200;-79
2021/10/21 07:40:10;;;;;;;3.97;0.50;;;13.20;99.90;;;;;;5115665;27;20694;-78
2021/10/21 07:42:38;;;;;;;1.53;0.40;;;13.20;99.90;;;;;;5120355;27;20201;-78
2021/10/21 07:45:07;;;;;;;2.23;1.03;;;13.40;99.90;;;;;;5129206;27;20192;-77
2021/10/21 07:47:34;;;;;;;3.27;0.80;;;13.50;99.90;;;;;;5123692;27;20197;-79
2021/10/21 07:50:01;;;;;;;0.97;0.43;;;13.70;99.90;;;;;;5122655;27;20280;-78
2021/10/21 07:52:28;;;;;;;1.47;0.70;;;13.80;99.90;;;;;;5123972;27;20239;-78
2021/10/21 07:54:56;;;;;;;0.70;0.60;;;14.00;99.90;;;;;;5127483;27;20197;-79
2021/10/21 07:57:26;;;;;;;3.03;0.50;;;14.00;99.90;;;;;;5118048;27;20205;-78
2021/10/21 07:59:53;;;;;;;2.53;0.43;;;14.00;99.90;;;;;;5118507;27;20295;-78
2021/10/21 08:02:20;;;;;;;0.30;0.20;;;13.90;99.90;;;;;;5121010;27;20196;-75
2021/10/21 08:04:47;;;;;;;0.27;0.13;;;13.90;99.90;;;;;;5117860;27;20207;-79
2021/10/21 08:07:14;;;;;;;2.40;0.73;;;13.80;99.90;;;;;;5119754;27;20204;-80
2021/10/21 08:09:41;;;;;;;0.67;0.50;;;13.70;99.90;;;;;;5119214;27;20669;-78
2021/10/21 08:12:10;;;;;;;0.73;0.40;;;13.60;99.90;;;;;;5119437;27;20566;-79
2021/10/21 08:14:38;;;;;;;1.73;0.93;;;13.50;99.90;;;;;;5115629;27;20288;-78
2021/10/21 08:17:05;;;;;;;2.40;0.30;;;13.40;99.90;;;;;;5120874;27;20206;-78
2021/10/21 08:19:32;;;;;;;0.57;0.33;;;13.20;99.90;;;;;;5121487;27;20619;-79
2021/10/21 08:21:59;;;;;;;0.73;0.30;;;13.10;99.90;;;;;;5114958;27;20201;-78
2021/10/21 08:24:26;;;;;;;0.90;0.63;;;12.90;99.90;;;;;;5133418;27;20202;-79
2021/10/21 08:26:55;;;;;;;1.67;0.53;;;12.80;99.90;;;;;;5138738;27;20939;-79
2021/10/21 08:29:23;;;;;;;7.23;1.00;;;12.70;99.90;;;;;;5116290;27;20211;-78
2021/10/21 08:31:53;;;;;;;1.67;0.50;;;12.30;99.90;;;;;;5123821;27;20541;-78
2021/10/21 08:34:21;;;;;;;2.37;0.57;;;11.20;99.90;;;;;;5112936;27;20228;-78
2021/10/21 08:36:48;;;;;;;2.27;0.43;;;11.00;99.90;;;;;;5113859;27;20674;-78
2021/10/21 08:39:15;;;;;;;1.47;0.60;;;10.90;99.90;;;;;;5129692;27;20204;-78
2021/10/21 08:41:43;;;;;;;1.50;0.30;;;10.80;99.90;;;;;;5133017;27;20557;-78
2021/10/21 08:44:10;;;;;;;0.57;0.20;;;10.70;99.90;;;;;;5133098;27;20203;-78
2021/10/21 08:46:38;;;;;;;0.43;0.10;;;10.70;99.90;;;;;;5118777;27;20208;-77
2021/10/21 08:49:07;;;;;;;0.70;0.20;;;10.70;99.90;;;;;;5131656;27;20211;-78
2021/10/21 08:51:34;;;;;;;0.40;0.17;;;10.70;99.90;;;;;;5113145;27;20565;-78
2021/10/21 08:54:05;;;;;;;1.80;0.20;;;10.80;99.90;;;;;;5122433;27;20490;-78
2021/10/21 08:56:32;;;;;;;2.20;0.67;;;10.80;99.90;;;;;;5128662;27;20204;-78
2021/10/21 08:59:00;;;;;;;3.13;0.43;;;10.70;99.90;;;;;;5119441;27;20209;-78
2021/10/21 09:01:35;;;;;;;0.23;0.10;;;10.70;99.90;;;;;;5126095;27;20219;-78
2021/10/21 09:04:27;;;;;;;2.20;0.40;;;10.50;99.90;;;;;;5121718;27;20196;-78
2021/10/21 09:09:44;;;;;;;0.30;0.20;;;10.50;99.90;;;;;;5110705;28;20242;-78
2021/10/21 09:12:13;;;;;;;0.50;0.20;;;10.60;99.90;;;;;;5117596;27;20222;-78
2021/10/21 09:14:42;;;;;;;0.80;0.37;;;10.60;99.90;;;;;;5120264;27;20589;-78
2021/10/21 09:17:10;;;;;;;0.50;0.30;;;10.60;99.90;;;;;;5132582;27;20204;-78
2021/10/21 09:19:41;;;;;;;0.20;0.20;;;10.70;99.90;;;;;;5122770;27;20627;-78
2021/10/21 09:22:21;;;;;;;0.50;0.23;;;10.60;99.90;;;;;;5126011;27;20208;-78
2021/10/21 09:24:48;;;;;;;0.27;0.10;;;10.60;99.90;;;;;;5111504;28;20201;-78
2021/10/21 09:27:17;;;;;;;0.77;0.10;;;10.60;99.90;;;;;;5115730;27;20203;-77
2021/10/21 09:29:46;;;;;;;3.20;1.00;;;10.60;99.90;;;;;;5123979;27;20627;-78
2021/10/21 09:32:14;;;;;;;0.33;0.20;;;10.60;99.90;;;;;;5116892;28;20227;-78
2021/10/21 09:34:50;;;;;;;2.83;0.50;;;10.70;99.90;;;;;;5112883;28;20698;-78
2021/10/21 09:37:18;;;;;;;1.90;0.37;;;10.70;99.90;;;;;;5111996;28;20231;-78
2021/10/21 09:39:51;;;;;;;0.73;0.40;;;10.70;99.90;;;;;;5131475;27;20652;-78
2021/10/21 09:42:19;;;;;;;0.20;0.13;;;10.80;99.90;;;;;;5127151;27;20621;-78
2021/10/21 09:44:47;;;;;;;0.93;0.33;;;10.80;99.90;;;;;;5112002;28;20200;-78
2021/10/21 09:47:21;;;;;;;0.60;0.50;;;10.90;99.90;;;;;;5111122;28;20205;-78
2021/10/21 09:49:56;;;;;;;1.37;0.70;;;11.10;99.90;;;;;;5125843;28;20202;-79
2021/10/21 09:52:24;;;;;;;2.60;1.20;;;11.20;99.90;;;;;;5129230;27;20199;-78
2021/10/21 09:54:52;;;;;;;0.90;0.80;;;11.30;99.90;;;;;;5135301;27;20223;-79
2021/10/21 09:57:19;;;;;;;2.63;1.33;;;11.50;99.90;;;;;;5126600;27;20201;-80
2021/10/21 10:00:03;;;;;;;1.00;0.90;;;11.50;99.90;;;;;;5129052;27;20211;-78
2021/10/21 10:02:32;;;;;;;2.27;0.93;;;11.50;99.90;;;;;;5114704;28;20287;-78
2021/10/21 10:05:04;;;;;;;2.73;0.80;;;11.60;99.90;;;;;;5124671;27;20212;-78
2021/10/21 10:07:31;;;;;;;2.07;0.77;;;11.40;99.90;;;;;;5124996;27;20741;-78
2021/10/21 10:10:00;;;;;;;6.93;1.10;;;11.30;99.90;;;;;;5135323;27;20214;-81
2021/10/21 10:12:30;;;;;;;2.63;0.70;;;11.20;99.90;;;;;;5128103;27;20205;-79
2021/10/21 10:14:58;;;;;;;2.37;0.80;;;10.90;99.90;;;;;;5130941;27;20280;-81
2021/10/21 10:17:27;;;;;;;1.90;0.60;;;10.90;99.90;;;;;;5135646;27;20646;-78
2021/10/21 10:19:54;;;;;;;0.73;0.70;;;10.90;99.90;;;;;;5123443;27;20605;-78
2021/10/21 10:22:27;;;;;;;3.87;1.07;;;10.90;99.90;;;;;;5131125;27;20200;-78
2021/10/21 10:24:55;;;;;;;2.70;0.97;;;11.10;99.90;;;;;;5114390;28;20254;-78
2021/10/21 10:27:29;;;;;;;1.63;0.70;;;11.20;99.90;;;;;;5115827;28;20204;-78
2021/10/21 10:29:58;;;;;;;1.73;1.10;;;11.40;99.90;;;;;;5121884;27;20290;-79
2021/10/21 10:32:40;;;;;;;8.43;1.03;;;11.50;99.90;;;;;;5127665;27;20249;-78
2021/10/21 10:35:08;;;;;;;5.93;1.27;;;11.60;99.90;;;;;;5123050;27;20220;-78
2021/10/21 10:37:41;;;;;;;2.87;1.20;;;11.60;99.90;;;;;;5124676;27;20639;-78
2021/10/21 10:40:09;;;;;;;5.20;1.77;;;11.70;99.90;;;;;;5121320;27;20257;-78
2021/10/21 10:42:58;;;;;;;2.97;1.30;;;11.70;99.90;;;;;;5122276;27;20205;-78
2021/10/21 10:45:39;;;;;;;3.80;1.50;;;11.80;99.90;;;;;;5115315;28;20203;-79
2021/10/21 10:48:06;;;;;;;5.57;1.70;;;11.80;99.90;;;;;;5133272;27;20195;-78
2021/10/21 10:50:56;;;;;;;4.77;1.70;;;11.80;99.90;;;;;;5129175;27;20211;-79
2021/10/21 10:53:43;;;;;;;3.07;1.50;;;11.80;99.90;;;;;;5150054;27;20220;-79
2021/10/21 10:56:11;;;;;;;3.60;1.30;;;11.90;99.90;;;;;;5131416;27;20208;-80
2021/10/21 10:58:38;;;;;;;4.00;2.03;;;12.00;99.90;;;;;;5128841;27;20204;-80
2021/10/21 11:01:05;;;;;;;8.93;1.90;;;12.30;99.90;;;;;;5125578;27;20655;-79
2021/10/21 11:03:35;;;;;;;5.77;1.90;;;12.30;99.90;;;;;;5121242;27;20198;-80
2021/10/21 11:06:03;;;;;;;10.03;2.23;;;12.20;99.90;;;;;;5130350;27;20707;-80
2021/10/21 11:08:53;;;;;;;6.90;1.93;;;12.30;99.90;;;;;;5118456;27;20242;-80
2021/10/21 11:11:48;;;;;;;8.03;1.80;;;12.30;99.90;;;;;;5117859;27;20192;-83
2021/10/21 11:14:17;;;;;;;3.27;1.57;;;12.00;99.90;;;;;;5114413;27;20298;-81
2021/10/21 11:16:50;;;;;;;6.47;2.00;;;11.80;99.90;;;;;;5118830;27;20209;-82
2021/10/21 11:19:52;;;;;;;5.60;2.23;;;11.60;99.90;;;;;;5116108;27;20629;-81
2021/10/21 11:22:41;;;;;;;6.20;2.33;;;11.70;99.90;;;;;;5122772;27;20609;-80
2021/10/21 11:25:15;;;;;;;5.13;1.70;;;11.80;99.90;;;;;;5117228;27;20305;-81
2021/10/21 11:27:44;;;;;;;7.93;2.00;;;11.80;99.90;;;;;;5111227;27;20205;-79
2021/10/21 11:30:14;;;;;;;9.20;2.50;;;11.80;99.90;;;;;;5113966;27;20192;-80
2021/10/21 11:32:43;;;;;;;6.67;2.00;;;11.80;99.90;;;;;;5116353;27;20223;-80
2021/10/21 11:35:13;;;;;;;6.87;2.27;;;11.90;99.90;;;;;;5119254;27;20239;-80
2021/10/21 11:37:44;;;;;;;9.10;2.77;;;11.90;99.90;;;;;;5123741;27;20554;-81
2021/10/21 11:40:17;;;;;;;8.27;2.63;;;11.80;99.90;;;;;;5118608;27;20682;-81
2021/10/21 11:42:55;;;;;;;9.80;2.07;;;11.80;99.90;;;;;;5114766;27;20217;-81
2021/10/21 11:45:28;;;;;;;8.57;2.00;;;11.80;99.90;;;;;;5116915;27;20207;-83
2021/10/21 11:47:57;;;;;;;6.97;2.40;;;11.80;99.90;;;;;;5116417;27;20613;-81
2021/10/21 11:50:38;;;;;;;8.43;2.53;;;11.90;99.90;;;;;;5120629;27;20208;-81
2021/10/21 11:53:06;;;;;;;8.67;2.33;;;12.00;99.90;;;;;;5125583;27;20576;-80
2021/10/21 11:55:35;;;;;;;7.93;2.30;;;12.20;99.90;;;;;;5116423;27;20493;-82
2021/10/21 11:58:14;;;;;;;7.30;2.53;;;12.30;99.90;;;;;;5113762;27;20213;-80
2021/10/21 12:00:43;;;;;;;8.80;2.97;;;12.80;99.90;;;;;;5117751;27;20216;-81
2021/10/21 12:03:10;;;;;;;5.33;2.40;;;12.90;99.90;;;;;;5118190;27;20316;-80
2021/10/21 12:05:40;;;;;;;7.67;2.27;;;12.80;99.90;;;;;;5126589;27;20201;-80
2021/10/21 12:08:08;;;;;;;7.77;2.30;;;12.70;99.90;;;;;;5116751;27;20232;-80
2021/10/21 12:10:39;;;;;;;8.27;1.93;;;12.60;99.90;;;;;;5119747;27;20200;-80
2021/10/21 12:13:07;;;;;;;6.60;2.20;;;12.50;99.90;;;;;;5116403;27;20223;-82
2021/10/21 12:15:36;;;;;;;7.07;1.87;;;12.50;99.90;;;;;;5118857;27;20213;-80
2021/10/21 12:18:08;;;;;;;5.43;1.97;;;12.40;99.90;;;;;;5111116;27;20197;-80
2021/10/21 12:20:41;;;;;;;6.43;1.70;;;12.30;99.90;;;;;;5117899;27;20702;-81
2021/10/21 12:23:14;;;;;;;6.70;2.00;;;12.00;99.90;;;;;;5112422;27;20642;-81
2021/10/21 12:25:43;;;;;;;4.77;2.00;;;11.80;99.90;;;;;;5112484;27;20207;-82
2021/10/21 12:28:10;;;;;;;8.73;2.37;;;11.80;99.90;;;;;;5116732;27;20289;-81
2021/10/21 12:30:38;;;;;;;4.27;1.97;;;11.90;99.90;;;;;;5112719;27;20205;-81
2021/10/21 12:33:13;;;;;;;3.13;1.70;;;11.90;99.90;;;;;;5113573;27;20211;-80
2021/10/21 12:36:03;;;;;;;2.70;1.70;;;11.90;99.90;;;;;;5114775;27;20220;-81
2021/10/21 12:38:31;;;;;;;3.97;1.60;;;11.90;99.90;;;;;;5122543;27;20689;-81
2021/10/21 12:41:06;;;;;;;6.23;1.93;;;11.80;99.90;;;;;;5117148;27;20609;-80
2021/10/21 12:43:33;;;;;;;3.30;1.80;;;11.70;99.90;;;;;;5127686;27;20213;-82
2021/10/21 12:46:04;;;;;;;2.87;1.80;;;11.70;99.90;;;;;;5121188;27;20209;-81
2021/10/21 12:48:51;;;;;;;3.57;2.17;;;11.70;99.90;;;;;;5117357;27;20212;-81
2021/10/21 12:51:33;;;;;;;3.10;2.17;;;11.70;99.90;;;;;;5122019;27;20208;-81
2021/10/21 12:54:00;;;;;;;4.00;2.47;;;11.60;99.90;;;;;;5115047;27;20239;-81
2021/10/21 12:56:29;;;;;;;3.20;1.97;;;11.50;99.90;;;;;;5110997;27;20201;-80
2021/10/21 12:59:01;;;;;;;4.77;2.43;;;11.50;99.90;;;;;;5120802;27;20200;-81